sensor_id;sensor_type;location;lat;lon;timestamp;temperature;humidity
72591;SHT31;60625;51.212;5.952;2023-09-07T00:00:58;18.71;76.45
72591;SHT31;60625;51.212;5.952;2023-09-07T00:06:01;18.65;76.46
72591;SHT31;60625;51.212;5.952;2023-09-07T00:11:04;18.64;76.24
72591;SHT31;60625;51.212;5.952;2023-09-07T00:16:09;18.59;76.33
72591;SHT31;60625;51.212;5.952;2023-09-07T00:21:10;18.51;76.44
72591;SHT31;60625;51.212;5.952;2023-09-07T00:26:10;18.49;76.41
72591;SHT31;60625;51.212;5.952;2023-09-07T00:31:13;18.43;76.41
72591;SHT31;60625;51.212;5.952;2023-09-07T00:36:14;18.40;76.58
72591;SHT31;60625;51.212;5.952;2023-09-07T00:41:14;18.36;76.85
72591;SHT31;60625;51.212;5.952;2023-09-07T00:46:15;18.31;77.11
72591;SHT31;60625;51.212;5.952;2023-09-07T00:51:16;18.16;77.19
72591;SHT31;60625;51.212;5.952;2023-09-07T00:56:16;17.99;76.65
72591;SHT31;60625;51.212;5.952;2023-09-07T01:01:17;17.89;76.42
72591;SHT31;60625;51.212;5.952;2023-09-07T01:11:37;17.77;76.69
72591;SHT31;60625;51.212;5.952;2023-09-07T01:16:38;17.73;76.82
72591;SHT31;60625;51.212;5.952;2023-09-07T01:21:39;17.68;76.93
72591;SHT31;60625;51.212;5.952;2023-09-07T01:26:40;17.61;77.18
72591;SHT31;60625;51.212;5.952;2023-09-07T01:31:42;17.54;77.65
72591;SHT31;60625;51.212;5.952;2023-09-07T01:36:43;17.45;77.82
72591;SHT31;60625;51.212;5.952;2023-09-07T01:41:44;17.38;77.94
72591;SHT31;60625;51.212;5.952;2023-09-07T01:46:44;17.31;77.99
72591;SHT31;60625;51.212;5.952;2023-09-07T01:51:45;17.27;77.86
72591;SHT31;60625;51.212;5.952;2023-09-07T01:56:45;17.30;77.79
72591;SHT31;60625;51.212;5.952;2023-09-07T02:01:46;17.31;77.88
72591;SHT31;60625;51.212;5.952;2023-09-07T02:06:47;17.33;77.92
72591;SHT31;60625;51.212;5.952;2023-09-07T02:11:47;17.30;78.39
72591;SHT31;60625;51.212;5.952;2023-09-07T02:16:48;17.24;78.54
72591;SHT31;60625;51.212;5.952;2023-09-07T02:21:48;17.14;78.79
72591;SHT31;60625;51.212;5.952;2023-09-07T02:26:50;17.00;78.78
72591;SHT31;60625;51.212;5.952;2023-09-07T02:31:51;16.92;78.67
72591;SHT31;60625;51.212;5.952;2023-09-07T02:36:52;16.93;78.90
72591;SHT31;60625;51.212;5.952;2023-09-07T02:41:52;16.97;78.88
72591;SHT31;60625;51.212;5.952;2023-09-07T02:46:53;16.96;78.64
72591;SHT31;60625;51.212;5.952;2023-09-07T02:51:53;16.93;78.74
72591;SHT31;60625;51.212;5.952;2023-09-07T02:56:54;16.90;78.83
72591;SHT31;60625;51.212;5.952;2023-09-07T03:01:55;16.88;78.98
72591;SHT31;60625;51.212;5.952;2023-09-07T03:06:56;16.86;78.94
72591;SHT31;60625;51.212;5.952;2023-09-07T03:11:57;16.84;78.96
72591;SHT31;60625;51.212;5.952;2023-09-07T03:16:58;16.84;78.85
72591;SHT31;60625;51.212;5.952;2023-09-07T03:21:58;16.83;78.95
72591;SHT31;60625;51.212;5.952;2023-09-07T03:27:00;16.79;79.07
72591;SHT31;60625;51.212;5.952;2023-09-07T03:32:01;16.74;79.07
72591;SHT31;60625;51.212;5.952;2023-09-07T03:37:03;16.67;79.07
72591;SHT31;60625;51.212;5.952;2023-09-07T03:42:06;16.56;79.20
72591;SHT31;60625;51.212;5.952;2023-09-07T03:47:07;16.48;79.41
72591;SHT31;60625;51.212;5.952;2023-09-07T03:52:09;16.37;79.50
72591;SHT31;60625;51.212;5.952;2023-09-07T03:57:10;16.31;79.45
72591;SHT31;60625;51.212;5.952;2023-09-07T04:02:11;16.25;79.15
72591;SHT31;60625;51.212;5.952;2023-09-07T04:07:12;16.19;79.43
72591;SHT31;60625;51.212;5.952;2023-09-07T04:12:13;16.19;79.38
72591;SHT31;60625;51.212;5.952;2023-09-07T04:17:13;16.18;79.17
72591;SHT31;60625;51.212;5.952;2023-09-07T04:22:14;16.15;79.30
72591;SHT31;60625;51.212;5.952;2023-09-07T04:27:15;16.10;79.58
72591;SHT31;60625;51.212;5.952;2023-09-07T04:32:16;16.09;79.59
72591;SHT31;60625;51.212;5.952;2023-09-07T04:37:16;16.10;79.93
72591;SHT31;60625;51.212;5.952;2023-09-07T04:42:17;16.09;80.25
72591;SHT31;60625;51.212;5.952;2023-09-07T04:47:17;16.09;80.26
72591;SHT31;60625;51.212;5.952;2023-09-07T04:52:18;16.08;80.31
72591;SHT31;60625;51.212;5.952;2023-09-07T04:57:19;16.06;80.41
72591;SHT31;60625;51.212;5.952;2023-09-07T05:02:20;16.00;80.54
72591;SHT31;60625;51.212;5.952;2023-09-07T05:07:20;15.97;80.56
72591;SHT31;60625;51.212;5.952;2023-09-07T05:12:21;15.93;80.64
72591;SHT31;60625;51.212;5.952;2023-09-07T05:17:22;15.88;80.81
72591;SHT31;60625;51.212;5.952;2023-09-07T05:22:22;15.85;80.99
72591;SHT31;60625;51.212;5.952;2023-09-07T05:27:23;15.86;80.76
72591;SHT31;60625;51.212;5.952;2023-09-07T05:32:24;15.83;80.76
72591;SHT31;60625;51.212;5.952;2023-09-07T05:37:26;15.82;80.86
72591;SHT31;60625;51.212;5.952;2023-09-07T05:42:26;15.86;81.12
72591;SHT31;60625;51.212;5.952;2023-09-07T05:47:27;15.91;81.23
72591;SHT31;60625;51.212;5.952;2023-09-07T05:52:29;16.16;81.26
72591;SHT31;60625;51.212;5.952;2023-09-07T05:57:30;17.05;79.49
72591;SHT31;60625;51.212;5.952;2023-09-07T06:02:31;17.10;79.31
72591;SHT31;60625;51.212;5.952;2023-09-07T06:07:31;17.04;79.89
72591;SHT31;60625;51.212;5.952;2023-09-07T06:12:32;17.02;80.19
72591;SHT31;60625;51.212;5.952;2023-09-07T06:17:34;16.99;81.11
72591;SHT31;60625;51.212;5.952;2023-09-07T06:22:34;16.98;81.72
72591;SHT31;60625;51.212;5.952;2023-09-07T06:27:35;17.07;82.33
72591;SHT31;60625;51.212;5.952;2023-09-07T06:32:36;17.18;82.72
72591;SHT31;60625;51.212;5.952;2023-09-07T06:37:37;17.31;82.68
72591;SHT31;60625;51.212;5.952;2023-09-07T06:42:41;17.45;82.39
72591;SHT31;60625;51.212;5.952;2023-09-07T06:47:48;17.59;81.89
72591;SHT31;60625;51.212;5.952;2023-09-07T06:52:51;17.75;81.42
72591;SHT31;60625;51.212;5.952;2023-09-07T06:57:53;17.91;81.53
72591;SHT31;60625;51.212;5.952;2023-09-07T07:02:54;18.05;81.39
72591;SHT31;60625;51.212;5.952;2023-09-07T07:07:55;18.24;81.20
72591;SHT31;60625;51.212;5.952;2023-09-07T07:12:58;18.43;80.92
72591;SHT31;60625;51.212;5.952;2023-09-07T07:17:58;18.63;80.54
72591;SHT31;60625;51.212;5.952;2023-09-07T07:22:59;18.85;80.28
72591;SHT31;60625;51.212;5.952;2023-09-07T07:28:00;19.08;79.64
72591;SHT31;60625;51.212;5.952;2023-09-07T07:33:08;19.36;78.38
72591;SHT31;60625;51.212;5.952;2023-09-07T07:38:12;19.66;77.78
72591;SHT31;60625;51.212;5.952;2023-09-07T07:43:15;19.95;77.00
72591;SHT31;60625;51.212;5.952;2023-09-07T07:48:16;20.22;76.11
72591;SHT31;60625;51.212;5.952;2023-09-07T07:53:17;20.48;76.13
72591;SHT31;60625;51.212;5.952;2023-09-07T07:58:19;20.76;75.75
72591;SHT31;60625;51.212;5.952;2023-09-07T08:03:20;21.03;74.97
72591;SHT31;60625;51.212;5.952;2023-09-07T08:08:21;21.39;72.96
72591;SHT31;60625;51.212;5.952;2023-09-07T08:13:22;21.71;71.38
72591;SHT31;60625;51.212;5.952;2023-09-07T08:18:23;22.04;69.85
72591;SHT31;60625;51.212;5.952;2023-09-07T08:23:24;22.40;69.24
72591;SHT31;60625;51.212;5.952;2023-09-07T08:28:25;22.74;68.61
72591;SHT31;60625;51.212;5.952;2023-09-07T08:33:27;23.02;67.00
72591;SHT31;60625;51.212;5.952;2023-09-07T08:38:35;23.29;66.23
72591;SHT31;60625;51.212;5.952;2023-09-07T08:43:44;23.52;65.58
72591;SHT31;60625;51.212;5.952;2023-09-07T08:48:46;23.73;64.43
72591;SHT31;60625;51.212;5.952;2023-09-07T08:53:48;23.94;63.51
72591;SHT31;60625;51.212;5.952;2023-09-07T08:58:49;24.15;62.58
72591;SHT31;60625;51.212;5.952;2023-09-07T09:03:50;24.35;62.81
72591;SHT31;60625;51.212;5.952;2023-09-07T09:08:53;24.55;61.87
72591;SHT31;60625;51.212;5.952;2023-09-07T09:13:55;24.72;60.44
72591;SHT31;60625;51.212;5.952;2023-09-07T09:18:56;24.84;59.60
72591;SHT31;60625;51.212;5.952;2023-09-07T09:23:57;25.02;59.25
72591;SHT31;60625;51.212;5.952;2023-09-07T09:28:59;25.20;59.21
72591;SHT31;60625;51.212;5.952;2023-09-07T09:34:00;25.35;58.92
72591;SHT31;60625;51.212;5.952;2023-09-07T09:39:02;25.55;59.06
72591;SHT31;60625;51.212;5.952;2023-09-07T09:44:05;25.79;58.19
72591;SHT31;60625;51.212;5.952;2023-09-07T09:49:08;25.97;57.33
72591;SHT31;60625;51.212;5.952;2023-09-07T09:54:11;26.19;57.92
72591;SHT31;60625;51.212;5.952;2023-09-07T09:59:13;26.42;58.10
72591;SHT31;60625;51.212;5.952;2023-09-07T10:04:15;26.60;55.78
72591;SHT31;60625;51.212;5.952;2023-09-07T10:09:18;26.73;55.51
72591;SHT31;60625;51.212;5.952;2023-09-07T10:14:19;26.87;55.04
72591;SHT31;60625;51.212;5.952;2023-09-07T10:19:21;27.03;55.56
72591;SHT31;60625;51.212;5.952;2023-09-07T10:24:23;27.10;54.54
72591;SHT31;60625;51.212;5.952;2023-09-07T10:29:40;27.15;53.26
72591;SHT31;60625;51.212;5.952;2023-09-07T10:34:46;27.23;52.97
72591;SHT31;60625;51.212;5.952;2023-09-07T10:39:47;27.37;53.36
72591;SHT31;60625;51.212;5.952;2023-09-07T10:44:47;27.57;53.78
72591;SHT31;60625;51.212;5.952;2023-09-07T10:49:48;27.69;52.57
72591;SHT31;60625;51.212;5.952;2023-09-07T10:54:56;27.79;51.76
72591;SHT31;60625;51.212;5.952;2023-09-07T10:59:57;27.90;51.75
72591;SHT31;60625;51.212;5.952;2023-09-07T11:04:58;28.02;52.25
72591;SHT31;60625;51.212;5.952;2023-09-07T11:09:58;28.19;52.49
72591;SHT31;60625;51.212;5.952;2023-09-07T11:14:59;28.33;51.38
72591;SHT31;60625;51.212;5.952;2023-09-07T11:20:02;28.41;50.83
72591;SHT31;60625;51.212;5.952;2023-09-07T11:25:07;28.46;50.74
72591;SHT31;60625;51.212;5.952;2023-09-07T11:30:10;28.58;50.60
72591;SHT31;60625;51.212;5.952;2023-09-07T11:35:11;28.61;49.53
72591;SHT31;60625;51.212;5.952;2023-09-07T11:40:12;28.71;49.48
72591;SHT31;60625;51.212;5.952;2023-09-07T11:45:12;28.90;49.83
72591;SHT31;60625;51.212;5.952;2023-09-07T11:50:16;29.09;49.36
72591;SHT31;60625;51.212;5.952;2023-09-07T11:55:17;29.18;49.51
72591;SHT31;60625;51.212;5.952;2023-09-07T12:00:18;29.23;48.30
72591;SHT31;60625;51.212;5.952;2023-09-07T12:05:20;29.27;47.90
72591;SHT31;60625;51.212;5.952;2023-09-07T12:10:20;29.44;48.69
72591;SHT31;60625;51.212;5.952;2023-09-07T12:15:21;29.52;47.60
72591;SHT31;60625;51.212;5.952;2023-09-07T12:20:22;29.61;46.54
72591;SHT31;60625;51.212;5.952;2023-09-07T12:25:22;29.59;45.99
72591;SHT31;60625;51.212;5.952;2023-09-07T12:30:23;29.68;46.93
72591;SHT31;60625;51.212;5.952;2023-09-07T12:35:24;29.83;47.03
72591;SHT31;60625;51.212;5.952;2023-09-07T12:40:25;29.88;46.38
72591;SHT31;60625;51.212;5.952;2023-09-07T12:45:25;29.87;46.12
72591;SHT31;60625;51.212;5.952;2023-09-07T12:50:26;29.91;46.19
72591;SHT31;60625;51.212;5.952;2023-09-07T12:55:27;30.03;46.92
72591;SHT31;60625;51.212;5.952;2023-09-07T13:00:29;30.13;46.31
72591;SHT31;60625;51.212;5.952;2023-09-07T13:05:30;30.18;46.09
72591;SHT31;60625;51.212;5.952;2023-09-07T13:10:31;30.20;45.56
72591;SHT31;60625;51.212;5.952;2023-09-07T13:15:31;30.23;46.01
72591;SHT31;60625;51.212;5.952;2023-09-07T13:20:32;30.29;46.43
72591;SHT31;60625;51.212;5.952;2023-09-07T13:25:32;30.36;45.24
72591;SHT31;60625;51.212;5.952;2023-09-07T13:30:33;30.32;44.68
72591;SHT31;60625;51.212;5.952;2023-09-07T13:35:34;30.38;45.81
72591;SHT31;60625;51.212;5.952;2023-09-07T13:40:34;30.47;44.76
72591;SHT31;60625;51.212;5.952;2023-09-07T13:45:35;30.57;45.15
72591;SHT31;60625;51.212;5.952;2023-09-07T13:50:35;30.67;44.78
72591;SHT31;60625;51.212;5.952;2023-09-07T13:55:36;30.68;44.43
72591;SHT31;60625;51.212;5.952;2023-09-07T14:00:39;30.77;44.78
72591;SHT31;60625;51.212;5.952;2023-09-07T14:05:40;30.84;45.63
72591;SHT31;60625;51.212;5.952;2023-09-07T14:10:41;30.79;43.49
72591;SHT31;60625;51.212;5.952;2023-09-07T14:15:41;30.76;44.22
72591;SHT31;60625;51.212;5.952;2023-09-07T14:20:42;30.78;42.98
72591;SHT31;60625;51.212;5.952;2023-09-07T14:25:42;30.87;43.06
72591;SHT31;60625;51.212;5.952;2023-09-07T14:30:45;30.96;43.15
72591;SHT31;60625;51.212;5.952;2023-09-07T14:35:46;31.03;44.67
72591;SHT31;60625;51.212;5.952;2023-09-07T14:40:47;30.98;43.10
72591;SHT31;60625;51.212;5.952;2023-09-07T14:45:54;30.96;43.57
72591;SHT31;60625;51.212;5.952;2023-09-07T14:50:57;31.02;43.96
72591;SHT31;60625;51.212;5.952;2023-09-07T14:55:58;31.04;42.65
72591;SHT31;60625;51.212;5.952;2023-09-07T15:00:59;31.00;42.64
72591;SHT31;60625;51.212;5.952;2023-09-07T15:06:00;31.00;42.78
72591;SHT31;60625;51.212;5.952;2023-09-07T15:11:00;30.97;42.85
72591;SHT31;60625;51.212;5.952;2023-09-07T15:16:01;30.92;44.31
72591;SHT31;60625;51.212;5.952;2023-09-07T15:21:01;30.88;45.72
72591;SHT31;60625;51.212;5.952;2023-09-07T15:26:02;30.88;44.85
72591;SHT31;60625;51.212;5.952;2023-09-07T15:31:03;30.85;44.83
72591;SHT31;60625;51.212;5.952;2023-09-07T15:36:04;30.74;44.09
72591;SHT31;60625;51.212;5.952;2023-09-07T15:41:05;30.69;44.69
72591;SHT31;60625;51.212;5.952;2023-09-07T15:46:05;30.64;42.53
72591;SHT31;60625;51.212;5.952;2023-09-07T15:51:06;30.57;42.24
72591;SHT31;60625;51.212;5.952;2023-09-07T15:56:06;30.52;42.96
72591;SHT31;60625;51.212;5.952;2023-09-07T16:01:07;30.47;43.44
72591;SHT31;60625;51.212;5.952;2023-09-07T16:06:08;30.36;42.94
72591;SHT31;60625;51.212;5.952;2023-09-07T16:11:15;30.26;43.83
72591;SHT31;60625;51.212;5.952;2023-09-07T16:16:15;30.17;44.20
72591;SHT31;60625;51.212;5.952;2023-09-07T16:21:16;30.07;44.33
72591;SHT31;60625;51.212;5.952;2023-09-07T16:26:32;29.99;43.90
72591;SHT31;60625;51.212;5.952;2023-09-07T16:31:33;29.86;44.21
72591;SHT31;60625;51.212;5.952;2023-09-07T16:36:33;29.78;46.66
72591;SHT31;60625;51.212;5.952;2023-09-07T16:41:34;29.69;48.76
72591;SHT31;60625;51.212;5.952;2023-09-07T16:46:35;29.55;49.67
72591;SHT31;60625;51.212;5.952;2023-09-07T16:51:35;29.33;48.47
72591;SHT31;60625;51.212;5.952;2023-09-07T16:56:36;29.13;49.28
72591;SHT31;60625;51.212;5.952;2023-09-07T17:01:36;28.98;50.43
72591;SHT31;60625;51.212;5.952;2023-09-07T17:06:40;28.81;50.73
72591;SHT31;60625;51.212;5.952;2023-09-07T17:11:42;28.61;52.05
72591;SHT31;60625;51.212;5.952;2023-09-07T17:16:46;28.45;51.06
72591;SHT31;60625;51.212;5.952;2023-09-07T17:21:47;28.31;51.48
72591;SHT31;60625;51.212;5.952;2023-09-07T17:26:50;28.12;52.52
72591;SHT31;60625;51.212;5.952;2023-09-07T17:31:51;27.94;52.84
72591;SHT31;60625;51.212;5.952;2023-09-07T17:36:52;27.76;53.26
72591;SHT31;60625;51.212;5.952;2023-09-07T17:41:53;27.58;53.96
72591;SHT31;60625;51.212;5.952;2023-09-07T17:46:54;27.34;53.90
72591;SHT31;60625;51.212;5.952;2023-09-07T17:51:54;27.13;54.03
72591;SHT31;60625;51.212;5.952;2023-09-07T17:56:55;26.95;54.41
72591;SHT31;60625;51.212;5.952;2023-09-07T18:01:55;26.78;54.62
72591;SHT31;60625;51.212;5.952;2023-09-07T18:06:56;26.60;54.71
72591;SHT31;60625;51.212;5.952;2023-09-07T18:11:56;26.43;54.97
72591;SHT31;60625;51.212;5.952;2023-09-07T18:16:57;26.27;55.01
72591;SHT31;60625;51.212;5.952;2023-09-07T18:21:57;26.10;55.69
72591;SHT31;60625;51.212;5.952;2023-09-07T18:26:59;25.95;56.29
72591;SHT31;60625;51.212;5.952;2023-09-07T18:32:00;25.74;57.23
72591;SHT31;60625;51.212;5.952;2023-09-07T18:37:00;25.51;57.63
72591;SHT31;60625;51.212;5.952;2023-09-07T18:42:01;25.33;57.49
72591;SHT31;60625;51.212;5.952;2023-09-07T18:47:01;25.20;57.88
72591;SHT31;60625;51.212;5.952;2023-09-07T18:52:02;25.07;58.58
72591;SHT31;60625;51.212;5.952;2023-09-07T18:57:04;24.91;58.63
72591;SHT31;60625;51.212;5.952;2023-09-07T19:02:05;24.83;59.13
72591;SHT31;60625;51.212;5.952;2023-09-07T19:07:06;24.68;59.87
72591;SHT31;60625;51.212;5.952;2023-09-07T19:12:06;24.57;59.80
72591;SHT31;60625;51.212;5.952;2023-09-07T19:17:07;24.47;59.78
72591;SHT31;60625;51.212;5.952;2023-09-07T19:22:09;24.35;60.26
72591;SHT31;60625;51.212;5.952;2023-09-07T19:27:10;24.28;59.81
72591;SHT31;60625;51.212;5.952;2023-09-07T19:32:11;24.18;59.70
72591;SHT31;60625;51.212;5.952;2023-09-07T19:37:12;24.05;59.15
72591;SHT31;60625;51.212;5.952;2023-09-07T19:42:15;23.96;57.54
72591;SHT31;60625;51.212;5.952;2023-09-07T19:47:15;23.96;57.14
72591;SHT31;60625;51.212;5.952;2023-09-07T19:52:17;23.89;57.26
72591;SHT31;60625;51.212;5.952;2023-09-07T19:57:17;23.84;56.69
72591;SHT31;60625;51.212;5.952;2023-09-07T20:02:18;23.81;56.74
72591;SHT31;60625;51.212;5.952;2023-09-07T20:07:19;23.74;57.02
72591;SHT31;60625;51.212;5.952;2023-09-07T20:12:20;23.69;56.88
72591;SHT31;60625;51.212;5.952;2023-09-07T20:17:21;23.60;57.06
72591;SHT31;60625;51.212;5.952;2023-09-07T20:22:22;23.55;56.91
72591;SHT31;60625;51.212;5.952;2023-09-07T20:27:27;23.50;56.92
72591;SHT31;60625;51.212;5.952;2023-09-07T20:32:27;23.46;56.99
72591;SHT31;60625;51.212;5.952;2023-09-07T20:37:29;23.42;56.75
72591;SHT31;60625;51.212;5.952;2023-09-07T20:42:29;23.40;56.91
72591;SHT31;60625;51.212;5.952;2023-09-07T20:47:30;23.29;58.13
72591;SHT31;60625;51.212;5.952;2023-09-07T20:52:30;23.17;58.22
72591;SHT31;60625;51.212;5.952;2023-09-07T20:57:31;23.08;57.97
72591;SHT31;60625;51.212;5.952;2023-09-07T21:02:32;23.05;57.72
72591;SHT31;60625;51.212;5.952;2023-09-07T21:07:33;23.03;57.59
72591;SHT31;60625;51.212;5.952;2023-09-07T21:12:34;23.03;57.55
72591;SHT31;60625;51.212;5.952;2023-09-07T21:17:34;22.98;58.08
72591;SHT31;60625;51.212;5.952;2023-09-07T21:22:35;22.93;57.99
72591;SHT31;60625;51.212;5.952;2023-09-07T21:27:35;22.90;58.03
72591;SHT31;60625;51.212;5.952;2023-09-07T21:32:36;22.88;57.92
72591;SHT31;60625;51.212;5.952;2023-09-07T21:37:40;22.86;58.10
72591;SHT31;60625;51.212;5.952;2023-09-07T21:42:41;22.79;58.33
72591;SHT31;60625;51.212;5.952;2023-09-07T21:47:42;22.74;58.47
72591;SHT31;60625;51.212;5.952;2023-09-07T21:52:44;22.67;58.88
72591;SHT31;60625;51.212;5.952;2023-09-07T21:57:44;22.60;59.01
72591;SHT31;60625;51.212;5.952;2023-09-07T22:02:45;22.51;59.44
72591;SHT31;60625;51.212;5.952;2023-09-07T22:07:46;22.46;59.58
72591;SHT31;60625;51.212;5.952;2023-09-07T22:12:47;22.38;59.92
72591;SHT31;60625;51.212;5.952;2023-09-07T22:17:48;22.30;60.09
72591;SHT31;60625;51.212;5.952;2023-09-07T22:22:49;22.25;60.06
72591;SHT31;60625;51.212;5.952;2023-09-07T22:27:49;22.19;60.22
72591;SHT31;60625;51.212;5.952;2023-09-07T22:32:50;22.15;60.26
72591;SHT31;60625;51.212;5.952;2023-09-07T22:37:51;22.09;60.51
72591;SHT31;60625;51.212;5.952;2023-09-07T22:42:51;22.04;60.71
72591;SHT31;60625;51.212;5.952;2023-09-07T22:47:52;21.98;60.97
72591;SHT31;60625;51.212;5.952;2023-09-07T22:52:53;21.92;61.34
72591;SHT31;60625;51.212;5.952;2023-09-07T22:57:54;21.86;61.79
72591;SHT31;60625;51.212;5.952;2023-09-07T23:02:55;21.80;62.08
72591;SHT31;60625;51.212;5.952;2023-09-07T23:07:56;21.75;62.63
72591;SHT31;60625;51.212;5.952;2023-09-07T23:12:58;21.68;62.67
72591;SHT31;60625;51.212;5.952;2023-09-07T23:17:59;21.63;62.60
72591;SHT31;60625;51.212;5.952;2023-09-07T23:23:00;21.58;62.53
72591;SHT31;60625;51.212;5.952;2023-09-07T23:28:01;21.53;62.81
72591;SHT31;60625;51.212;5.952;2023-09-07T23:33:02;21.49;62.81
72591;SHT31;60625;51.212;5.952;2023-09-07T23:38:06;21.42;63.42
72591;SHT31;60625;51.212;5.952;2023-09-07T23:43:07;21.36;63.76
72591;SHT31;60625;51.212;5.952;2023-09-07T23:48:08;21.29;63.92
72591;SHT31;60625;51.212;5.952;2023-09-07T23:53:08;21.21;64.51
72591;SHT31;60625;51.212;5.952;2023-09-07T23:58:09;21.06;65.88
